Time;durP1;ratioP1;P1;durP2;ratioP2;P2;SDS_P1;SDS_P2;PMS_P1;PMS_P2;Temp;Humidity;BMP_temperature;BMP_pressure;BME280_temperature;BME280_humidity;BME280_pressure;Samples;Min_cycle;Max_cycle;Signal;HPM_P1;HPM_P2
2023/12/23 00:00:06;;;;;;;1.97;1.87;;;19.20;45.00;;;;;;4974831;28;23584;-79
2023/12/23 00:02:31;;;;;;;2.23;2.03;;;19.20;45.00;;;;;;4977918;28;20241;-78
2023/12/23 00:04:57;;;;;;;3.07;1.73;;;19.20;45.00;;;;;;4981741;28;20482;-79
2023/12/23 00:07:22;;;;;;;2.20;1.60;;;19.20;45.00;;;;;;4981407;28;20681;-79
2023/12/23 00:09:48;;;;;;;1.63;1.50;;;19.20;45.00;;;;;;4963461;28;20227;-79
2023/12/23 00:12:13;;;;;;;1.97;1.40;;;19.20;45.00;;;;;;4982565;28;20227;-79
2023/12/23 00:14:39;;;;;;;1.60;1.47;;;19.20;45.00;;;;;;4975429;28;20231;-79
2023/12/23 00:17:04;;;;;;;2.03;1.70;;;19.20;45.00;;;;;;4973096;28;20258;-78
2023/12/23 00:19:30;;;;;;;1.80;1.70;;;19.20;45.00;;;;;;4973275;28;20310;-79
2023/12/23 00:21:55;;;;;;;2.03;1.60;;;19.20;45.10;;;;;;4973882;28;20232;-78
2023/12/23 00:24:21;;;;;;;1.60;1.50;;;19.20;45.00;;;;;;4992879;28;20246;-79
2023/12/23 00:26:47;;;;;;;2.20;1.57;;;19.20;45.10;;;;;;4985262;28;20236;-79
2023/12/23 00:29:12;;;;;;;2.17;1.53;;;19.10;45.00;;;;;;4976908;28;20710;-79
2023/12/23 00:31:38;;;;;;;2.10;1.80;;;19.20;45.10;;;;;;4962500;28;20283;-79
2023/12/23 00:34:04;;;;;;;1.67;1.57;;;19.20;45.10;;;;;;4988403;28;20657;-79
2023/12/23 00:36:30;;;;;;;1.80;1.70;;;19.20;45.10;;;;;;4991029;28;20250;-79
2023/12/23 00:38:55;;;;;;;1.83;1.50;;;19.20;45.10;;;;;;4991956;28;20235;-79
2023/12/23 00:41:22;;;;;;;1.60;1.50;;;19.20;45.10;;;;;;4963868;28;20263;-79
2023/12/23 00:43:48;;;;;;;1.60;1.50;;;19.20;45.10;;;;;;4985703;28;20263;-78
2023/12/23 00:46:14;;;;;;;2.03;1.77;;;19.20;45.10;;;;;;4976755;28;20460;-78
2023/12/23 00:48:39;;;;;;;1.50;1.40;;;19.10;45.10;;;;;;4971532;28;20808;-79
2023/12/23 00:51:05;;;;;;;3.50;1.70;;;19.10;45.10;;;;;;4991081;28;20231;-79
2023/12/23 00:53:30;;;;;;;1.70;1.60;;;19.10;45.00;;;;;;4966852;28;21062;-79
2023/12/23 00:55:56;;;;;;;1.50;1.40;;;19.10;45.00;;;;;;4999462;28;20223;-79
2023/12/23 00:58:21;;;;;;;2.73;1.80;;;19.10;45.00;;;;;;4992262;28;20273;-79
2023/12/23 01:00:47;;;;;;;2.30;1.53;;;19.10;45.10;;;;;;4974906;28;20240;-79
2023/12/23 01:03:12;;;;;;;1.50;1.40;;;19.10;45.00;;;;;;4982337;28;20239;-79
2023/12/23 01:05:38;;;;;;;1.60;1.50;;;19.10;45.10;;;;;;4986049;28;20317;-79
2023/12/23 01:08:04;;;;;;;1.77;1.67;;;19.10;45.10;;;;;;4977588;28;20232;-79
2023/12/23 01:10:29;;;;;;;1.60;1.50;;;19.10;45.10;;;;;;4987948;28;20231;-79
2023/12/23 01:12:55;;;;;;;1.50;1.30;;;19.10;45.10;;;;;;4991441;28;20235;-79
2023/12/23 01:15:21;;;;;;;1.93;1.73;;;19.10;45.10;;;;;;4983534;28;20228;-79
2023/12/23 01:17:46;;;;;;;1.30;1.20;;;19.10;45.10;;;;;;4983072;28;20230;-79
2023/12/23 01:20:12;;;;;;;1.60;1.50;;;19.10;45.10;;;;;;4982401;28;20232;-79
2023/12/23 01:22:38;;;;;;;1.33;1.20;;;19.10;45.10;;;;;;4986093;28;20847;-79
2023/12/23 01:25:04;;;;;;;2.50;1.37;;;19.10;45.10;;;;;;4978566;28;20236;-79
2023/12/23 01:27:29;;;;;;;1.57;1.30;;;19.10;45.10;;;;;;4991958;28;20240;-79
2023/12/23 01:29:55;;;;;;;1.80;1.70;;;19.10;45.10;;;;;;4990300;28;20250;-79
2023/12/23 01:32:21;;;;;;;1.60;1.20;;;19.10;45.10;;;;;;4989426;28;20750;-79
2023/12/23 01:34:47;;;;;;;1.83;1.73;;;19.10;45.10;;;;;;4972944;28;20220;-79
2023/12/23 01:37:13;;;;;;;1.43;1.33;;;19.10;45.10;;;;;;4992163;28;21110;-78
2023/12/23 01:39:39;;;;;;;1.40;1.30;;;19.10;45.10;;;;;;4970926;28;20435;-78
2023/12/23 01:42:04;;;;;;;1.40;1.30;;;19.10;45.10;;;;;;4983803;28;20477;-78
2023/12/23 01:44:30;;;;;;;1.40;1.30;;;19.10;45.10;;;;;;4985422;28;20236;-78
2023/12/23 01:46:58;;;;;;;1.50;1.40;;;19.10;45.10;;;;;;4984911;28;20237;-79
2023/12/23 01:49:25;;;;;;;1.50;1.40;;;19.10;45.10;;;;;;4962967;28;20275;-79
2023/12/23 01:51:53;;;;;;;1.50;1.40;;;19.10;45.10;;;;;;4978393;28;20449;-79
2023/12/23 01:54:19;;;;;;;1.27;1.17;;;19.10;45.10;;;;;;4980064;28;20435;-78
2023/12/23 01:56:46;;;;;;;1.40;1.30;;;19.10;45.10;;;;;;4976669;28;20515;-78
2023/12/23 01:59:12;;;;;;;1.57;1.47;;;19.10;45.10;;;;;;4979483;28;20459;-78
2023/12/23 02:01:40;;;;;;;1.63;1.53;;;19.10;45.10;;;;;;4988293;28;20870;-78
2023/12/23 02:04:05;;;;;;;1.50;1.40;;;19.10;45.10;;;;;;4990098;28;20767;-78
2023/12/23 02:06:31;;;;;;;1.73;1.40;;;19.10;45.10;;;;;;4981847;28;20522;-78
2023/12/23 02:08:57;;;;;;;1.30;1.20;;;19.10;45.20;;;;;;4966547;28;20232;-78
2023/12/23 02:11:35;;;;;;;1.47;1.30;;;19.10;45.10;;;;;;4971204;28;20572;-78
2023/12/23 02:14:26;;;;;;;1.43;1.33;;;19.10;45.10;;;;;;4974674;28;20219;-78
2023/12/23 02:16:53;;;;;;;1.63;1.53;;;19.10;45.10;;;;;;4943495;28;20477;-78
2023/12/23 02:19:18;;;;;;;1.50;1.40;;;19.10;45.10;;;;;;4967033;28;20530;-78
2023/12/23 02:21:44;;;;;;;1.47;1.37;;;19.10;45.20;;;;;;4975384;28;20467;-77
2023/12/23 02:24:10;;;;;;;1.47;1.10;;;19.10;45.20;;;;;;4978824;28;20701;-78
2023/12/23 02:26:37;;;;;;;1.63;1.53;;;19.10;45.10;;;;;;4987731;28;20590;-79
2023/12/23 02:29:03;;;;;;;1.60;1.50;;;19.10;45.10;;;;;;4968722;28;20227;-79
2023/12/23 02:31:30;;;;;;;1.43;1.33;;;19.10;45.10;;;;;;4980485;28;20477;-78
2023/12/23 02:33:56;;;;;;;3.57;1.30;;;19.10;45.20;;;;;;4981427;28;20464;-77
2023/12/23 02:36:22;;;;;;;1.47;1.37;;;19.10;45.10;;;;;;4990124;28;20521;-77
2023/12/23 02:38:49;;;;;;;1.70;1.30;;;19.10;45.20;;;;;;4993986;28;20466;-78
2023/12/23 02:41:15;;;;;;;1.70;1.50;;;19.10;45.10;;;;;;4964842;28;20253;-77
2023/12/23 02:43:40;;;;;;;1.50;1.40;;;19.10;45.10;;;;;;4983326;28;20987;-77
2023/12/23 02:46:06;;;;;;;1.53;1.43;;;19.10;45.10;;;;;;4985086;28;20220;-77
2023/12/23 02:48:31;;;;;;;1.53;1.20;;;19.10;45.10;;;;;;4994469;28;20224;-78
2023/12/23 02:50:57;;;;;;;1.90;1.40;;;19.10;45.10;;;;;;4978197;28;20242;-78
2023/12/23 02:53:23;;;;;;;1.70;1.60;;;19.10;45.10;;;;;;4985459;28;20267;-78
2023/12/23 02:55:48;;;;;;;1.70;1.50;;;19.10;45.10;;;;;;4992645;28;20227;-78
2023/12/23 02:58:14;;;;;;;1.17;1.07;;;19.10;45.10;;;;;;4995095;28;20219;-78
2023/12/23 03:00:39;;;;;;;1.13;1.00;;;19.10;45.00;;;;;;4974766;28;20311;-78
2023/12/23 03:03:05;;;;;;;1.50;1.40;;;19.10;45.10;;;;;;4978187;28;20219;-79
2023/12/23 03:05:30;;;;;;;1.40;1.30;;;19.10;45.10;;;;;;4976246;28;20614;-79
2023/12/23 03:07:56;;;;;;;1.30;1.10;;;19.10;45.10;;;;;;4983395;28;20320;-79
2023/12/23 03:10:21;;;;;;;1.87;1.20;;;19.10;45.10;;;;;;4964758;28;20877;-79
2023/12/23 03:12:47;;;;;;;2.00;1.40;;;19.10;45.10;;;;;;4987002;28;20231;-79
2023/12/23 03:15:13;;;;;;;1.60;1.50;;;19.10;45.10;;;;;;4975865;28;20235;-79
2023/12/23 03:17:38;;;;;;;1.50;1.40;;;19.10;45.10;;;;;;4977776;28;20231;-79
2023/12/23 03:20:04;;;;;;;1.23;1.13;;;19.10;45.10;;;;;;4965095;28;20289;-79
2023/12/23 03:22:30;;;;;;;1.57;1.40;;;19.10;45.10;;;;;;4962623;28;20231;-79
2023/12/23 03:24:56;;;;;;;1.37;1.27;;;19.10;45.10;;;;;;4986798;28;20838;-79
2023/12/23 03:27:21;;;;;;;1.40;1.30;;;19.10;45.10;;;;;;4988482;28;20243;-79
2023/12/23 03:29:47;;;;;;;1.40;1.30;;;19.10;45.10;;;;;;4995052;28;20238;-79
2023/12/23 03:32:12;;;;;;;1.30;1.20;;;19.10;45.10;;;;;;4989429;28;20227;-79
2023/12/23 03:34:40;;;;;;;1.30;1.20;;;19.10;45.90;;;;;;4993086;28;20231;-79
2023/12/23 03:37:06;;;;;;;1.43;1.30;;;19.10;45.10;;;;;;4992009;28;20365;-79
2023/12/23 03:39:31;;;;;;;1.40;1.30;;;19.10;45.10;;;;;;4977162;28;20443;-78
2023/12/23 03:41:57;;;;;;;1.33;1.23;;;19.10;45.10;;;;;;4973928;28;20620;-79
2023/12/23 03:44:23;;;;;;;2.10;1.40;;;19.10;45.10;;;;;;4988285;28;20246;-79
2023/12/23 03:46:49;;;;;;;1.33;1.23;;;19.10;45.10;;;;;;4975364;28;20675;-79
2023/12/23 03:49:14;;;;;;;1.43;1.30;;;19.10;45.10;;;;;;4987879;28;20447;-79
2023/12/23 03:51:40;;;;;;;1.37;1.27;;;19.10;45.20;;;;;;4979570;28;20582;-79
2023/12/23 03:54:05;;;;;;;1.50;1.40;;;19.10;45.10;;;;;;4993720;28;20240;-79
2023/12/23 03:56:31;;;;;;;1.30;1.20;;;19.00;45.10;;;;;;4991696;28;20322;-79
2023/12/23 03:58:58;;;;;;;1.50;1.40;;;19.10;45.10;;;;;;4973941;28;20230;-78
2023/12/23 04:01:24;;;;;;;1.50;1.30;;;19.10;45.10;;;;;;4990223;28;20321;-78
2023/12/23 04:03:50;;;;;;;1.33;1.23;;;19.10;45.20;;;;;;4958414;28;20483;-78
2023/12/23 04:06:16;;;;;;;1.47;1.37;;;19.10;45.10;;;;;;4966042;28;21345;-78
2023/12/23 04:08:42;;;;;;;2.00;1.40;;;19.10;45.10;;;;;;4965220;28;20470;-78
2023/12/23 04:11:07;;;;;;;2.10;1.47;;;19.10;45.20;;;;;;4965532;28;20466;-78
2023/12/23 04:13:33;;;;;;;1.67;1.30;;;19.10;45.20;;;;;;4970298;28;21664;-78
2023/12/23 04:16:02;;;;;;;1.40;1.30;;;19.10;45.10;;;;;;4982361;28;20224;-78
2023/12/23 04:18:28;;;;;;;2.13;1.50;;;19.10;45.10;;;;;;4972508;28;20244;-78
2023/12/23 04:20:54;;;;;;;1.60;1.50;;;19.10;45.20;;;;;;4978336;28;20543;-78
2023/12/23 04:23:19;;;;;;;4.70;1.53;;;19.10;45.20;;;;;;4979786;28;20310;-78
2023/12/23 04:25:45;;;;;;;1.50;1.40;;;19.00;45.00;;;;;;4968383;28;20251;-78
2023/12/23 04:28:11;;;;;;;2.40;1.23;;;19.00;45.10;;;;;;4979825;28;20239;-78
2023/12/23 04:30:37;;;;;;;1.50;1.40;;;19.10;45.10;;;;;;4965368;28;20231;-78
2023/12/23 04:33:03;;;;;;;1.30;1.20;;;19.10;45.10;;;;;;4967509;28;20479;-78
2023/12/23 04:35:28;;;;;;;1.40;1.30;;;19.00;45.30;;;;;;4963943;28;20228;-78
2023/12/23 04:37:54;;;;;;;3.13;1.57;;;19.00;45.10;;;;;;4966754;28;20227;-78
2023/12/23 04:40:19;;;;;;;1.50;1.40;;;19.10;45.20;;;;;;4981646;28;20229;-78
2023/12/23 04:42:45;;;;;;;2.13;1.47;;;19.00;45.00;;;;;;4982403;28;20235;-78
2023/12/23 04:45:10;;;;;;;1.57;1.40;;;19.10;45.10;;;;;;4971321;28;20679;-78
2023/12/23 04:47:36;;;;;;;1.53;1.40;;;19.10;45.10;;;;;;4993421;28;20235;-78
2023/12/23 04:50:03;;;;;;;1.50;1.40;;;19.10;45.10;;;;;;4971205;28;20299;-78
2023/12/23 04:52:28;;;;;;;1.47;1.37;;;19.10;45.10;;;;;;4966597;28;20477;-78
2023/12/23 04:54:54;;;;;;;1.33;1.20;;;19.10;45.10;;;;;;4977813;28;20450;-78
2023/12/23 04:57:19;;;;;;;1.20;1.10;;;19.10;45.00;;;;;;5010223;28;20269;-78
2023/12/23 04:59:45;;;;;;;1.60;1.50;;;19.00;44.90;;;;;;5006996;28;20281;-78
2023/12/23 05:02:10;;;;;;;2.20;1.30;;;19.10;45.00;;;;;;4999320;28;20278;-78
2023/12/23 05:04:36;;;;;;;1.50;1.40;;;19.10;45.00;;;;;;4986376;28;20329;-78
2023/12/23 05:07:02;;;;;;;1.40;1.30;;;19.10;45.00;;;;;;4992537;28;20289;-78
2023/12/23 05:09:27;;;;;;;1.93;1.40;;;19.10;45.00;;;;;;4984438;28;20235;-76
2023/12/23 05:11:53;;;;;;;1.40;1.30;;;19.10;45.00;;;;;;4980601;28;20227;-77
2023/12/23 05:14:19;;;;;;;1.63;1.47;;;19.10;45.00;;;;;;4973051;28;20228;-77
2023/12/23 05:16:44;;;;;;;1.30;1.20;;;19.10;44.90;;;;;;4991901;28;20227;-77
2023/12/23 05:19:10;;;;;;;1.33;1.23;;;19.10;44.90;;;;;;4987023;28;20231;-76
2023/12/23 05:21:35;;;;;;;1.83;1.43;;;19.10;44.90;;;;;;4990879;28;20220;-77
2023/12/23 05:24:01;;;;;;;1.40;1.20;;;19.10;44.80;;;;;;4984253;28;20687;-76
2023/12/23 05:26:26;;;;;;;1.33;1.23;;;19.10;44.80;;;;;;4991073;28;20224;-76
2023/12/23 05:28:52;;;;;;;1.60;1.50;;;19.10;44.80;;;;;;4990140;28;20231;-76
2023/12/23 05:31:17;;;;;;;1.20;1.10;;;19.10;44.70;;;;;;4989279;28;20223;-77
2023/12/23 05:33:43;;;;;;;1.23;1.13;;;19.10;44.80;;;;;;4987674;28;20255;-76
2023/12/23 05:36:09;;;;;;;1.20;1.10;;;19.10;44.70;;;;;;4988184;28;20220;-77
2023/12/23 05:38:34;;;;;;;1.50;1.40;;;19.10;44.70;;;;;;4993538;28;20745;-77
2023/12/23 05:41:00;;;;;;;1.30;1.13;;;19.10;44.80;;;;;;4985158;28;20460;-77
2023/12/23 05:43:26;;;;;;;1.40;1.30;;;19.10;44.70;;;;;;4976906;28;20227;-74
2023/12/23 05:45:52;;;;;;;1.20;1.10;;;19.10;44.70;;;;;;4994349;28;20452;-76
2023/12/23 05:48:17;;;;;;;1.50;1.40;;;19.10;44.70;;;;;;4977807;28;20756;-76
2023/12/23 05:50:43;;;;;;;1.57;1.10;;;19.10;44.70;;;;;;4988924;28;20231;-76
2023/12/23 05:53:09;;;;;;;1.60;1.20;;;19.10;44.80;;;;;;4975420;28;20238;-76
2023/12/23 05:55:34;;;;;;;1.43;1.33;;;19.10;44.70;;;;;;4970577;28;20231;-77
2023/12/23 05:58:00;;;;;;;1.90;1.30;;;19.10;44.70;;;;;;4988344;28;20270;-76
2023/12/23 06:00:25;;;;;;;1.40;1.30;;;19.20;44.80;;;;;;4974306;28;20625;-76
2023/12/23 06:02:51;;;;;;;1.43;1.27;;;19.10;44.70;;;;;;4992420;28;20228;-76
2023/12/23 06:05:16;;;;;;;1.40;1.30;;;19.20;44.80;;;;;;4993480;28;20239;-77
2023/12/23 06:07:42;;;;;;;1.10;1.00;;;19.10;44.70;;;;;;4991802;28;20709;-76
2023/12/23 06:10:08;;;;;;;1.37;1.27;;;19.20;44.80;;;;;;4989011;28;20230;-76
2023/12/23 06:12:33;;;;;;;1.20;1.10;;;19.20;44.80;;;;;;4996363;28;20642;-75
2023/12/23 06:14:59;;;;;;;1.60;1.50;;;19.10;44.60;;;;;;4980912;28;20448;-78
2023/12/23 06:17:25;;;;;;;1.30;1.20;;;19.10;44.60;;;;;;4987340;28;20234;-78
2023/12/23 06:19:51;;;;;;;2.03;1.33;;;19.10;44.60;;;;;;4988262;28;20311;-77
2023/12/23 06:22:16;;;;;;;1.30;1.20;;;19.20;44.70;;;;;;4987432;28;20526;-77
2023/12/23 06:24:42;;;;;;;1.20;1.10;;;19.20;44.70;;;;;;4977681;28;20274;-76
2023/12/23 06:27:07;;;;;;;1.80;1.27;;;19.10;44.60;;;;;;4983517;28;20693;-75
2023/12/23 06:29:33;;;;;;;1.23;1.13;;;19.20;44.70;;;;;;4996427;28;20222;-75
2023/12/23 06:31:59;;;;;;;1.40;1.27;;;19.20;44.60;;;;;;4986257;28;20224;-75
2023/12/23 06:34:25;;;;;;;1.50;1.40;;;19.20;44.60;;;;;;4992241;28;20235;-76
2023/12/23 06:36:51;;;;;;;1.37;1.27;;;19.20;44.70;;;;;;4994820;28;20797;-77
2023/12/23 06:39:16;;;;;;;1.30;1.20;;;19.20;44.70;;;;;;4997626;28;20630;-77
2023/12/23 06:41:42;;;;;;;1.40;1.10;;;19.20;44.60;;;;;;4999625;28;20238;-76
2023/12/23 06:44:07;;;;;;;1.50;1.17;;;19.20;44.60;;;;;;4999620;28;20315;-76
2023/12/23 06:46:33;;;;;;;1.60;1.50;;;19.20;44.60;;;;;;4993144;28;20279;-78
2023/12/23 06:48:59;;;;;;;1.63;1.23;;;19.20;44.90;;;;;;4985699;28;20234;-75
2023/12/23 06:51:24;;;;;;;1.50;1.40;;;19.20;44.60;;;;;;4976083;28;21147;-78
2023/12/23 06:53:50;;;;;;;1.20;1.10;;;19.20;44.60;;;;;;4984501;28;20242;-78
2023/12/23 06:56:16;;;;;;;1.40;1.27;;;19.20;44.60;;;;;;4994613;28;20311;-77
2023/12/23 06:58:44;;;;;;;1.00;0.90;;;19.20;44.50;;;;;;4996173;28;20229;-78
2023/12/23 07:01:09;;;;;;;1.23;1.13;;;19.20;44.50;;;;;;4992547;28;20278;-77
2023/12/23 07:03:35;;;;;;;1.70;1.43;;;19.20;44.50;;;;;;4987137;28;20493;-75
2023/12/23 07:06:00;;;;;;;1.20;1.10;;;19.20;44.50;;;;;;4976662;28;20288;-73
2023/12/23 07:08:26;;;;;;;1.30;1.20;;;19.20;44.50;;;;;;4983534;28;20208;-75
2023/12/23 07:10:51;;;;;;;1.20;1.10;;;19.20;44.50;;;;;;4981742;28;20231;-74
2023/12/23 07:13:17;;;;;;;1.37;1.27;;;19.20;44.50;;;;;;4972349;28;20583;-76
2023/12/23 07:15:42;;;;;;;1.83;1.10;;;19.20;44.50;;;;;;4990244;28;20227;-77
2023/12/23 07:18:09;;;;;;;6.70;1.20;;;19.20;44.50;;;;;;4983447;28;20223;-76
2023/12/23 07:20:35;;;;;;;1.83;1.30;;;19.20;44.50;;;;;;4998418;28;20212;-76
2023/12/23 07:23:01;;;;;;;1.30;1.20;;;19.20;44.50;;;;;;4982678;28;20476;-76
2023/12/23 07:25:26;;;;;;;1.50;1.40;;;19.20;44.50;;;;;;4984279;28;20619;-79
2023/12/23 07:27:52;;;;;;;1.40;1.30;;;19.20;44.40;;;;;;4994678;28;20311;-76
2023/12/23 07:30:17;;;;;;;1.40;1.30;;;19.20;44.30;;;;;;4990525;28;20319;-77
2023/12/23 07:32:43;;;;;;;1.60;1.50;;;19.20;44.30;;;;;;4977270;28;20233;-77
2023/12/23 07:35:08;;;;;;;1.20;1.10;;;19.20;44.40;;;;;;4991564;28;20317;-76
2023/12/23 07:37:34;;;;;;;1.20;1.10;;;19.20;44.30;;;;;;4976637;28;20646;-76
2023/12/23 07:40:03;;;;;;;1.40;1.30;;;19.20;44.30;;;;;;4981440;28;20227;-75
2023/12/23 07:42:28;;;;;;;1.40;1.30;;;19.20;44.30;;;;;;4973678;28;20310;-75
2023/12/23 07:44:54;;;;;;;1.50;1.40;;;19.30;44.50;;;;;;4981917;28;20459;-74
2023/12/23 07:47:19;;;;;;;1.20;1.10;;;19.20;44.30;;;;;;4980101;28;20579;-75
2023/12/23 07:49:45;;;;;;;4.30;1.40;;;19.30;44.50;;;;;;4983525;28;20269;-76
2023/12/23 07:52:10;;;;;;;1.50;1.40;;;19.30;44.40;;;;;;4992222;28;20690;-75
2023/12/23 07:54:36;;;;;;;1.47;1.37;;;19.30;44.30;;;;;;4989748;28;22848;-75
2023/12/23 07:57:01;;;;;;;1.30;1.20;;;19.30;44.30;;;;;;4982515;28;20224;-76
2023/12/23 07:59:27;;;;;;;1.53;1.43;;;19.30;44.30;;;;;;4973823;28;20316;-75
2023/12/23 08:01:52;;;;;;;1.60;1.40;;;19.30;44.30;;;;;;4978440;28;20318;-75
2023/12/23 08:04:18;;;;;;;1.60;1.50;;;19.30;44.30;;;;;;4981676;28;20266;-76
2023/12/23 08:06:44;;;;;;;1.63;1.53;;;19.30;44.30;;;;;;4960003;28;20266;-77
2023/12/23 08:09:10;;;;;;;2.03;1.43;;;19.30;44.30;;;;;;4967016;28;20580;-75
2023/12/23 08:11:35;;;;;;;1.60;1.50;;;19.30;44.10;;;;;;4986069;28;20224;-74
2023/12/23 08:14:02;;;;;;;1.60;1.50;;;19.30;44.20;;;;;;4987494;28;20976;-75
2023/12/23 08:16:28;;;;;;;2.60;1.40;;;19.30;44.20;;;;;;4977790;28;20246;-74
2023/12/23 08:18:53;;;;;;;3.50;1.33;;;19.30;44.20;;;;;;4969899;28;20571;-76
2023/12/23 08:21:19;;;;;;;4.83;1.63;;;19.30;44.30;;;;;;4987322;28;20261;-76
2023/12/23 08:23:45;;;;;;;1.63;1.53;;;19.30;44.30;;;;;;4991543;28;20258;-77
2023/12/23 08:26:10;;;;;;;1.60;1.50;;;19.30;44.30;;;;;;4954986;28;20228;-76
2023/12/23 08:28:36;;;;;;;2.67;2.30;;;19.30;44.40;;;;;;4945478;28;20283;-74
2023/12/23 08:31:02;;;;;;;5.90;2.17;;;19.30;44.30;;;;;;4952045;28;20943;-77
2023/12/23 08:33:28;;;;;;;2.17;2.00;;;19.30;44.40;;;;;;4950625;28;20458;-75
2023/12/23 08:35:56;;;;;;;2.27;1.80;;;19.30;44.50;;;;;;4948751;28;20872;-74
2023/12/23 08:38:22;;;;;;;2.17;1.93;;;19.30;44.50;;;;;;4955717;28;20229;-80
2023/12/23 08:40:48;;;;;;;4.10;2.37;;;19.20;44.40;;;;;;4942690;28;20490;-77
2023/12/23 08:43:13;;;;;;;2.47;2.27;;;19.30;44.60;;;;;;4954710;28;20218;-77
2023/12/23 08:45:39;;;;;;;2.97;2.60;;;19.30;44.60;;;;;;4938763;28;20257;-76
2023/12/23 08:48:05;;;;;;;2.67;2.47;;;19.20;44.50;;;;;;4937036;28;20279;-75
2023/12/23 08:50:30;;;;;;;4.60;2.90;;;19.30;44.60;;;;;;4934920;28;20684;-78
2023/12/23 08:52:56;;;;;;;4.10;2.97;;;19.30;44.60;;;;;;4946856;28;20449;-77
2023/12/23 08:55:22;;;;;;;8.17;3.10;;;19.20;44.50;;;;;;4958307;28;20240;-75
2023/12/23 08:57:47;;;;;;;3.57;3.27;;;19.30;44.60;;;;;;4955978;28;20231;-77
2023/12/23 09:00:14;;;;;;;10.77;3.80;;;19.30;44.60;;;;;;4949969;28;20228;-76
2023/12/23 09:02:40;;;;;;;4.73;2.77;;;19.20;44.50;;;;;;4949985;28;20233;-76
2023/12/23 09:05:06;;;;;;;3.63;3.33;;;19.30;44.60;;;;;;4954369;28;20517;-74
2023/12/23 09:07:31;;;;;;;3.67;3.37;;;19.30;44.70;;;;;;4957935;28;20255;-77
2023/12/23 09:09:57;;;;;;;4.93;3.50;;;19.30;44.70;;;;;;4938042;28;20927;-76
2023/12/23 09:12:22;;;;;;;3.57;3.27;;;19.30;44.70;;;;;;4948084;28;20263;-79
2023/12/23 09:14:49;;;;;;;3.97;3.67;;;19.30;44.70;;;;;;4953368;28;20225;-73
2023/12/23 09:17:15;;;;;;;4.17;3.60;;;19.30;44.80;;;;;;4957839;28;20221;-80
2023/12/23 09:19:41;;;;;;;4.77;3.40;;;19.20;44.60;;;;;;4937192;28;20456;-83
2023/12/23 09:22:07;;;;;;;11.23;4.70;;;19.30;44.80;;;;;;4954232;28;20458;-79
2023/12/23 09:24:34;;;;;;;5.07;3.77;;;19.20;44.70;;;;;;4952290;28;20934;-83
2023/12/23 09:26:59;;;;;;;4.23;3.83;;;19.20;44.70;;;;;;4955488;28;20462;-83
2023/12/23 09:29:25;;;;;;;7.20;4.27;;;19.30;44.80;;;;;;4973285;28;20960;-82
2023/12/23 09:31:50;;;;;;;6.03;3.73;;;19.30;44.80;;;;;;4981782;28;20220;-81
2023/12/23 09:34:16;;;;;;;3.93;3.20;;;19.20;44.80;;;;;;4968046;28;20231;-82
2023/12/23 09:36:41;;;;;;;4.00;3.47;;;19.30;44.90;;;;;;4963264;28;20251;-84
2023/12/23 09:39:07;;;;;;;21.03;7.97;;;19.20;44.80;;;;;;4970792;28;20228;-84
2023/12/23 09:41:32;;;;;;;22.80;7.30;;;19.20;44.70;;;;;;4969831;28;20220;-84
2023/12/23 09:43:58;;;;;;;33.53;10.60;;;19.30;44.70;;;;;;4970289;28;20263;-85
2023/12/23 09:46:24;;;;;;;45.97;11.03;;;19.30;44.70;;;;;;4977418;28;20242;-80
2023/12/23 09:48:50;;;;;;;47.47;10.77;;;19.40;44.80;;;;;;4967209;28;20231;-83
2023/12/23 09:51:19;;;;;;;30.03;9.33;;;19.40;44.80;;;;;;4992361;28;20227;-84
2023/12/23 09:53:47;;;;;;;44.70;10.90;;;19.40;44.70;;;;;;4970386;28;20283;-82
2023/12/23 09:56:13;;;;;;;42.93;11.80;;;19.50;44.80;;;;;;4968052;28;20448;-87
2023/12/23 09:58:39;;;;;;;19.97;8.90;;;19.50;44.80;;;;;;4973957;28;20448;-83
2023/12/23 10:01:04;;;;;;;18.73;8.20;;;19.50;44.80;;;;;;4975058;28;20876;-82
2023/12/23 10:03:30;;;;;;;17.30;6.93;;;19.50;44.80;;;;;;4970433;28;20447;-84
2023/12/23 10:06:00;;;;;;;16.40;6.43;;;19.50;44.90;;;;;;4959639;28;20330;-81
2023/12/23 10:08:26;;;;;;;28.30;10.43;;;19.50;44.90;;;;;;4967467;28;20217;-78
2023/12/23 10:10:52;;;;;;;38.30;11.27;;;19.50;45.00;;;;;;4974900;28;20783;-77
2023/12/23 10:13:17;;;;;;;51.93;13.30;;;19.50;45.00;;;;;;4962390;28;20220;-78
2023/12/23 10:15:44;;;;;;;74.33;17.17;;;19.50;45.00;;;;;;4965370;28;20236;-76
2023/12/23 10:18:13;;;;;;;54.80;14.97;;;19.50;44.90;;;;;;4962227;28;20262;-77
2023/12/23 10:20:41;;;;;;;66.67;15.17;;;19.60;45.70;;;;;;4958828;28;20424;-75
2023/12/23 10:23:08;;;;;;;46.90;14.07;;;19.60;45.00;;;;;;4959445;28;20437;-74
2023/12/23 10:25:34;;;;;;;66.43;12.53;;;19.60;45.00;;;;;;4967651;28;20477;-77
2023/12/23 10:28:01;;;;;;;35.80;10.30;;;19.60;44.90;;;;;;4983508;28;20492;-77
2023/12/23 10:30:28;;;;;;;26.57;9.40;;;19.70;45.00;;;;;;4984894;28;20877;-77
2023/12/23 10:32:59;;;;;;;35.40;9.20;;;19.60;44.80;;;;;;4981858;28;20821;-78
2023/12/23 10:35:28;;;;;;;22.57;8.40;;;19.70;44.90;;;;;;4977304;28;20548;-77
2023/12/23 10:37:58;;;;;;;22.10;7.27;;;19.70;44.90;;;;;;4989780;28;20443;-77
2023/12/23 10:40:26;;;;;;;28.60;7.97;;;19.70;44.90;;;;;;4983149;28;20448;-79
2023/12/23 10:42:54;;;;;;;18.00;6.40;;;19.70;45.00;;;;;;4971907;28;20649;-79
2023/12/23 10:45:20;;;;;;;12.80;5.30;;;19.70;45.00;;;;;;4992772;28;20474;-78
2023/12/23 10:47:47;;;;;;;13.53;5.50;;;19.70;45.00;;;;;;4975699;28;20464;-79
2023/12/23 10:50:14;;;;;;;14.27;5.83;;;19.70;45.00;;;;;;4966902;28;20486;-79
2023/12/23 10:52:47;;;;;;;11.33;4.97;;;19.70;45.00;;;;;;4987478;28;20498;-79
2023/12/23 10:55:14;;;;;;;9.00;4.60;;;19.80;45.10;;;;;;4965458;28;20436;-79
2023/12/23 10:57:41;;;;;;;5.47;4.10;;;19.70;45.00;;;;;;4998379;28;20461;-79
2023/12/23 11:00:09;;;;;;;8.20;4.77;;;19.80;45.10;;;;;;4993293;28;21153;-79
2023/12/23 11:02:37;;;;;;;4.13;3.63;;;19.80;45.30;;;;;;4989485;28;20435;-79
2023/12/23 11:05:07;;;;;;;5.97;3.70;;;19.80;45.00;;;;;;4988717;28;20533;-79
2023/12/23 11:07:37;;;;;;;8.97;3.77;;;19.80;45.10;;;;;;4964893;28;21545;-78
2023/12/23 11:10:05;;;;;;;5.10;3.50;;;19.80;45.10;;;;;;4960362;28;20484;-77
2023/12/23 11:12:31;;;;;;;4.67;3.00;;;19.80;45.10;;;;;;4965355;28;20495;-78
2023/12/23 11:15:00;;;;;;;3.40;3.10;;;19.80;45.00;;;;;;4989980;28;20566;-78
2023/12/23 11:17:29;;;;;;;2.70;2.50;;;19.80;45.00;;;;;;4981690;28;20231;-77
2023/12/23 11:19:56;;;;;;;6.00;3.20;;;19.80;45.00;;;;;;4983449;28;20443;-78
2023/12/23 11:22:28;;;;;;;6.13;2.53;;;19.90;45.10;;;;;;4991392;28;20448;-78
2023/12/23 11:24:54;;;;;;;2.97;2.77;;;19.90;45.10;;;;;;4968755;28;20827;-77
2023/12/23 11:27:36;;;;;;;2.40;2.20;;;19.80;45.00;;;;;;4986360;28;20515;-77
2023/12/23 11:30:03;;;;;;;2.50;2.30;;;19.80;45.50;;;;;;4966455;28;20452;-77
2023/12/23 11:32:36;;;;;;;2.47;2.27;;;19.80;45.10;;;;;;4994858;28;20490;-76
2023/12/23 11:35:11;;;;;;;2.33;2.13;;;19.90;45.30;;;;;;4989250;28;20802;-77
2023/12/23 11:37:55;;;;;;;1.93;1.83;;;19.90;45.30;;;;;;4977438;28;21120;-77
2023/12/23 11:40:22;;;;;;;2.57;2.27;;;19.80;45.20;;;;;;4989520;28;20469;-76
2023/12/23 11:42:48;;;;;;;2.43;2.23;;;19.90;45.30;;;;;;4973845;28;20444;-76
2023/12/23 11:45:15;;;;;;;3.17;2.90;;;19.80;45.20;;;;;;4972983;28;20492;-76
2023/12/23 11:47:40;;;;;;;2.73;2.50;;;19.80;45.20;;;;;;4958477;28;20447;-78
2023/12/23 11:50:07;;;;;;;1.90;1.80;;;19.90;45.30;;;;;;4967855;28;20836;-77
2023/12/23 11:52:34;;;;;;;3.60;2.40;;;19.90;45.30;;;;;;4988596;28;20666;-77
2023/12/23 11:55:03;;;;;;;3.40;3.20;;;19.90;45.30;;;;;;4989416;28;20441;-76
2023/12/23 11:57:30;;;;;;;2.13;2.03;;;19.90;45.30;;;;;;4971266;28;20478;-76
2023/12/23 11:59:56;;;;;;;3.00;2.80;;;19.90;45.30;;;;;;4988819;28;20447;-77
2023/12/23 12:02:21;;;;;;;2.77;2.57;;;19.80;45.20;;;;;;4982565;28;20822;-77
2023/12/23 12:04:47;;;;;;;2.97;2.77;;;19.80;45.20;;;;;;4978253;28;20255;-78
2023/12/23 12:07:12;;;;;;;3.67;3.40;;;19.80;45.20;;;;;;4971193;28;20306;-76
2023/12/23 12:09:38;;;;;;;2.87;2.70;;;19.80;45.10;;;;;;4990564;28;20231;-76
2023/12/23 12:12:04;;;;;;;3.30;3.00;;;19.80;45.20;;;;;;4985475;28;20227;-77
2023/12/23 12:14:31;;;;;;;2.57;2.47;;;19.80;45.20;;;;;;4955595;28;20851;-77
2023/12/23 12:16:56;;;;;;;3.27;3.07;;;19.80;45.20;;;;;;4978181;28;20537;-77
2023/12/23 12:19:22;;;;;;;3.03;2.73;;;19.80;45.10;;;;;;4970211;28;20539;-78
2023/12/23 12:21:47;;;;;;;3.10;2.90;;;19.80;45.10;;;;;;4967143;28;20231;-77
2023/12/23 12:24:13;;;;;;;3.00;2.70;;;19.80;45.20;;;;;;4990255;28;20246;-77
2023/12/23 12:26:39;;;;;;;3.27;3.07;;;19.80;45.20;;;;;;4976318;28;20244;-79
2023/12/23 12:29:05;;;;;;;3.27;3.00;;;19.80;45.20;;;;;;4968153;28;20563;-77
2023/12/23 12:31:31;;;;;;;3.50;3.30;;;19.80;45.20;;;;;;4974670;28;20465;-77
2023/12/23 12:33:57;;;;;;;3.50;3.30;;;19.80;45.20;;;;;;4959785;28;20263;-77
2023/12/23 12:36:24;;;;;;;3.70;3.50;;;19.80;45.20;;;;;;4976127;28;20315;-78
2023/12/23 12:38:50;;;;;;;3.43;3.23;;;19.80;45.20;;;;;;4976554;28;20474;-79